sensor_id;sensor_type;location;lat;lon;timestamp;pressure;altitude;pressure_sealevel;temperature;humidity
31483;BME280;18103;52.246;8.052;2023-04-25T00:00:56;99563.72;;;7.28;84.92
31483;BME280;18103;52.246;8.052;2023-04-25T00:03:21;99556.81;;;7.27;84.95
31483;BME280;18103;52.246;8.052;2023-04-25T00:05:47;99559.31;;;7.29;84.98
31483;BME280;18103;52.246;8.052;2023-04-25T00:08:13;99560.16;;;7.29;85.59
31483;BME280;18103;52.246;8.052;2023-04-25T00:10:38;99561.47;;;7.35;84.93
31483;BME280;18103;52.246;8.052;2023-04-25T00:13:06;99567.09;;;7.30;85.68
31483;BME280;18103;52.246;8.052;2023-04-25T00:15:33;99558.97;;;7.33;85.46
31483;BME280;18103;52.246;8.052;2023-04-25T00:17:59;99558.59;;;7.27;85.58
31483;BME280;18103;52.246;8.052;2023-04-25T00:20:25;99566.72;;;7.35;85.21
31483;BME280;18103;52.246;8.052;2023-04-25T00:22:50;99564.81;;;7.26;85.87
31483;BME280;18103;52.246;8.052;2023-04-25T00:25:20;99563.38;;;7.33;85.48
31483;BME280;18103;52.246;8.052;2023-04-25T00:27:45;99576.50;;;7.22;85.43
31483;BME280;18103;52.246;8.052;2023-04-25T00:30:11;99572.09;;;7.33;86.33
31483;BME280;18103;52.246;8.052;2023-04-25T00:32:37;99572.94;;;7.34;86.33
31483;BME280;18103;52.246;8.052;2023-04-25T00:35:03;99570.91;;;7.38;85.82
31483;BME280;18103;52.246;8.052;2023-04-25T00:37:28;99574.72;;;7.33;86.40
31483;BME280;18103;52.246;8.052;2023-04-25T00:39:58;99584.75;;;7.28;86.67
31483;BME280;18103;52.246;8.052;2023-04-25T00:42:26;99582.00;;;7.30;87.19
31483;BME280;18103;52.246;8.052;2023-04-25T00:44:55;99581.28;;;7.16;88.12
31483;BME280;18103;52.246;8.052;2023-04-25T00:47:21;99581.75;;;7.22;87.56
31483;BME280;18103;52.246;8.052;2023-04-25T00:49:47;99585.91;;;7.24;87.56
31483;BME280;18103;52.246;8.052;2023-04-25T00:52:15;99586.28;;;7.08;88.17
31483;BME280;18103;52.246;8.052;2023-04-25T00:54:40;99596.06;;;7.17;88.36
31483;BME280;18103;52.246;8.052;2023-04-25T00:57:08;99593.09;;;7.11;88.73
31483;BME280;18103;52.246;8.052;2023-04-25T00:59:34;99596.06;;;7.17;88.38
31483;BME280;18103;52.246;8.052;2023-04-25T01:02:01;99599.41;;;7.19;88.03
31483;BME280;18103;52.246;8.052;2023-04-25T01:04:29;99594.03;;;7.10;88.61
31483;BME280;18103;52.246;8.052;2023-04-25T01:07:00;99599.16;;;7.11;88.18
31483;BME280;18103;52.246;8.052;2023-04-25T01:09:27;99603.59;;;7.22;88.34
31483;BME280;18103;52.246;8.052;2023-04-25T01:11:55;99606.47;;;7.30;87.53
31483;BME280;18103;52.246;8.052;2023-04-25T01:14:22;99607.91;;;7.34;88.11
31483;BME280;18103;52.246;8.052;2023-04-25T01:16:50;99603.47;;;7.24;88.00
31483;BME280;18103;52.246;8.052;2023-04-25T01:19:16;99600.47;;;7.28;88.12
31483;BME280;18103;52.246;8.052;2023-04-25T01:21:43;99603.59;;;7.22;88.16
31483;BME280;18103;52.246;8.052;2023-04-25T01:24:12;99602.63;;;7.23;88.15
31483;BME280;18103;52.246;8.052;2023-04-25T01:26:40;99607.97;;;7.10;88.60
31483;BME280;18103;52.246;8.052;2023-04-25T01:29:09;99616.09;;;7.18;88.37
31483;BME280;18103;52.246;8.052;2023-04-25T01:31:37;99607.16;;;7.21;88.00
31483;BME280;18103;52.246;8.052;2023-04-25T01:34:05;99611.53;;;7.09;87.61
31483;BME280;18103;52.246;8.052;2023-04-25T01:36:31;99618.81;;;7.06;87.58
31483;BME280;18103;52.246;8.052;2023-04-25T01:38:56;99618.31;;;7.00;87.46
31483;BME280;18103;52.246;8.052;2023-04-25T01:41:24;99620.63;;;7.05;87.68
31483;BME280;18103;52.246;8.052;2023-04-25T01:43:52;99630.53;;;7.13;87.47
31483;BME280;18103;52.246;8.052;2023-04-25T01:46:20;99631.13;;;7.05;87.63
31483;BME280;18103;52.246;8.052;2023-04-25T01:48:48;99634.44;;;7.07;87.33
31483;BME280;18103;52.246;8.052;2023-04-25T01:51:13;99635.13;;;6.98;87.82
31483;BME280;18103;52.246;8.052;2023-04-25T01:53:42;99637.56;;;7.01;87.32
31483;BME280;18103;52.246;8.052;2023-04-25T01:56:13;99644.84;;;7.09;87.43
31483;BME280;18103;52.246;8.052;2023-04-25T01:58:40;99646.00;;;7.05;86.85
31483;BME280;18103;52.246;8.052;2023-04-25T02:01:07;99644.13;;;7.07;87.14
31483;BME280;18103;52.246;8.052;2023-04-25T02:03:34;99646.63;;;7.08;87.24
31483;BME280;18103;52.246;8.052;2023-04-25T02:06:01;99646.81;;;6.94;87.45
31483;BME280;18103;52.246;8.052;2023-04-25T02:08:27;99649.38;;;7.07;86.78
31483;BME280;18103;52.246;8.052;2023-04-25T02:10:52;99643.84;;;6.98;87.13
31483;BME280;18103;52.246;8.052;2023-04-25T02:13:18;99644.31;;;6.92;87.06
31483;BME280;18103;52.246;8.052;2023-04-25T02:15:43;99645.75;;;6.96;86.80
31483;BME280;18103;52.246;8.052;2023-04-25T02:18:08;99641.78;;;6.91;87.01
31483;BME280;18103;52.246;8.052;2023-04-25T02:20:35;99653.63;;;6.96;86.70
31483;BME280;18103;52.246;8.052;2023-04-25T02:23:03;99652.78;;;6.96;87.17
31483;BME280;18103;52.246;8.052;2023-04-25T02:25:29;99650.41;;;6.93;86.94
31483;BME280;18103;52.246;8.052;2023-04-25T02:27:54;99647.53;;;6.96;86.86
31483;BME280;18103;52.246;8.052;2023-04-25T02:30:22;99645.16;;;6.93;86.68
31483;BME280;18103;52.246;8.052;2023-04-25T02:32:48;99655.66;;;6.93;86.93
31483;BME280;18103;52.246;8.052;2023-04-25T02:35:13;99655.84;;;6.90;86.47
31483;BME280;18103;52.246;8.052;2023-04-25T02:37:39;99654.09;;;6.90;86.67
31483;BME280;18103;52.246;8.052;2023-04-25T02:40:06;99666.94;;;6.82;86.26
31483;BME280;18103;52.246;8.052;2023-04-25T02:42:32;99669.50;;;6.71;86.49
31483;BME280;18103;52.246;8.052;2023-04-25T02:44:57;99669.50;;;6.71;86.13
31483;BME280;18103;52.246;8.052;2023-04-25T02:47:26;99669.63;;;6.69;85.53
31483;BME280;18103;52.246;8.052;2023-04-25T02:49:51;99674.53;;;6.74;85.61
31483;BME280;18103;52.246;8.052;2023-04-25T02:52:17;99676.88;;;6.65;85.57
31483;BME280;18103;52.246;8.052;2023-04-25T02:54:42;99677.75;;;6.53;85.78
31483;BME280;18103;52.246;8.052;2023-04-25T02:57:07;99675.94;;;6.66;85.30
31483;BME280;18103;52.246;8.052;2023-04-25T02:59:33;99673.53;;;6.63;85.72
31483;BME280;18103;52.246;8.052;2023-04-25T03:01:59;99672.97;;;6.47;84.67
31483;BME280;18103;52.246;8.052;2023-04-25T03:04:26;99676.00;;;6.54;85.16
31483;BME280;18103;52.246;8.052;2023-04-25T03:06:54;99673.78;;;6.47;84.94
31483;BME280;18103;52.246;8.052;2023-04-25T03:09:22;99677.03;;;6.51;85.01
31483;BME280;18103;52.246;8.052;2023-04-25T03:11:48;99683.13;;;6.51;84.96
31483;BME280;18103;52.246;8.052;2023-04-25T03:14:13;99685.63;;;6.53;84.75
31483;BME280;18103;52.246;8.052;2023-04-25T03:16:39;99679.44;;;6.54;84.63
31483;BME280;18103;52.246;8.052;2023-04-25T03:19:06;99677.31;;;6.59;84.80
31483;BME280;18103;52.246;8.052;2023-04-25T03:21:33;99688.63;;;6.60;85.06
31483;BME280;18103;52.246;8.052;2023-04-25T03:24:00;99682.63;;;6.46;84.97
31483;BME280;18103;52.246;8.052;2023-04-25T03:26:25;99687.53;;;6.51;84.59
31483;BME280;18103;52.246;8.052;2023-04-25T03:28:50;99692.66;;;6.53;85.09
31483;BME280;18103;52.246;8.052;2023-04-25T03:31:16;99685.06;;;6.61;85.08
31483;BME280;18103;52.246;8.052;2023-04-25T03:33:44;99695.09;;;6.67;84.90
31483;BME280;18103;52.246;8.052;2023-04-25T03:36:10;99692.19;;;6.72;84.85
31483;BME280;18103;52.246;8.052;2023-04-25T03:38:38;99696.78;;;6.68;85.09
31483;BME280;18103;52.246;8.052;2023-04-25T03:41:03;99698.69;;;6.66;85.63
31483;BME280;18103;52.246;8.052;2023-04-25T03:43:28;99700.13;;;6.70;85.69
31483;BME280;18103;52.246;8.052;2023-04-25T03:45:54;99700.63;;;6.75;85.34
31483;BME280;18103;52.246;8.052;2023-04-25T03:48:21;99708.50;;;6.51;85.74
31483;BME280;18103;52.246;8.052;2023-04-25T03:50:49;99710.56;;;6.59;85.91
31483;BME280;18103;52.246;8.052;2023-04-25T03:53:19;99715.84;;;6.46;86.17
31483;BME280;18103;52.246;8.052;2023-04-25T03:55:45;99714.50;;;6.40;86.14
31483;BME280;18103;52.246;8.052;2023-04-25T03:58:10;99728.50;;;6.65;85.91
31483;BME280;18103;52.246;8.052;2023-04-25T04:00:36;99724.13;;;6.53;86.55
31483;BME280;18103;52.246;8.052;2023-04-25T04:03:04;99730.13;;;6.42;86.47
31483;BME280;18103;52.246;8.052;2023-04-25T04:05:29;99722.44;;;6.51;86.25
31483;BME280;18103;52.246;8.052;2023-04-25T04:07:55;99723.81;;;6.44;86.08
31483;BME280;18103;52.246;8.052;2023-04-25T04:10:22;99736.19;;;6.55;85.55
31483;BME280;18103;52.246;8.052;2023-04-25T04:12:48;99738.00;;;6.42;85.75
31483;BME280;18103;52.246;8.052;2023-04-25T04:15:13;99741.41;;;6.55;85.59
31483;BME280;18103;52.246;8.052;2023-04-25T04:17:39;99746.63;;;6.31;86.07
31483;BME280;18103;52.246;8.052;2023-04-25T04:20:07;99745.38;;;6.37;85.76
31483;BME280;18103;52.246;8.052;2023-04-25T04:22:33;99744.09;;;6.29;85.87
31483;BME280;18103;52.246;8.052;2023-04-25T04:24:58;99743.34;;;6.40;85.83
31483;BME280;18103;52.246;8.052;2023-04-25T04:27:24;99747.00;;;6.38;85.47
31483;BME280;18103;52.246;8.052;2023-04-25T04:29:49;99755.53;;;6.28;85.49
31483;BME280;18103;52.246;8.052;2023-04-25T04:32:16;99749.09;;;6.45;85.52
31483;BME280;18103;52.246;8.052;2023-04-25T04:34:44;99756.25;;;6.30;85.75
31483;BME280;18103;52.246;8.052;2023-04-25T04:37:12;99758.56;;;6.22;85.51
31483;BME280;18103;52.246;8.052;2023-04-25T04:39:38;99762.03;;;6.36;84.83
31483;BME280;18103;52.246;8.052;2023-04-25T04:42:06;99759.94;;;6.28;85.34
31483;BME280;18103;52.246;8.052;2023-04-25T04:44:31;99765.84;;;6.19;85.14
31483;BME280;18103;52.246;8.052;2023-04-25T04:47:00;99767.06;;;6.26;85.40
31483;BME280;18103;52.246;8.052;2023-04-25T04:49:26;99768.13;;;6.23;85.22
31483;BME280;18103;52.246;8.052;2023-04-25T04:51:52;99763.72;;;6.37;85.11
31483;BME280;18103;52.246;8.052;2023-04-25T04:54:19;99773.16;;;6.26;85.46
31483;BME280;18103;52.246;8.052;2023-04-25T04:56:47;99775.16;;;6.23;85.31
31483;BME280;18103;52.246;8.052;2023-04-25T04:59:15;99778.09;;;6.31;85.64
31483;BME280;18103;52.246;8.052;2023-04-25T05:01:40;99784.97;;;6.32;85.58
31483;BME280;18103;52.246;8.052;2023-04-25T05:04:09;99788.38;;;6.21;85.39
31483;BME280;18103;52.246;8.052;2023-04-25T05:06:36;99789.19;;;6.22;85.16
31483;BME280;18103;52.246;8.052;2023-04-25T05:09:02;99796.84;;;6.12;85.33
31483;BME280;18103;52.246;8.052;2023-04-25T05:11:27;99799.69;;;6.22;85.47
31483;BME280;18103;52.246;8.052;2023-04-25T05:13:53;99799.56;;;6.23;85.35
31483;BME280;18103;52.246;8.052;2023-04-25T05:16:19;99811.28;;;6.30;85.08
31483;BME280;18103;52.246;8.052;2023-04-25T05:18:46;99813.00;;;6.19;85.23
31483;BME280;18103;52.246;8.052;2023-04-25T05:21:11;99813.72;;;6.21;84.86
31483;BME280;18103;52.246;8.052;2023-04-25T05:23:36;99812.13;;;6.18;84.88
31483;BME280;18103;52.246;8.052;2023-04-25T05:26:04;99816.47;;;6.06;84.60
31483;BME280;18103;52.246;8.052;2023-04-25T05:28:30;99817.81;;;6.12;84.91
31483;BME280;18103;52.246;8.052;2023-04-25T05:30:56;99819.91;;;6.07;84.73
31483;BME280;18103;52.246;8.052;2023-04-25T05:33:21;99814.97;;;6.15;84.51
31483;BME280;18103;52.246;8.052;2023-04-25T05:35:50;99823.06;;;5.99;84.40
31483;BME280;18103;52.246;8.052;2023-04-25T05:38:17;99822.03;;;6.02;84.55
31483;BME280;18103;52.246;8.052;2023-04-25T05:40:43;99827.75;;;6.07;84.87
31483;BME280;18103;52.246;8.052;2023-04-25T05:43:09;99831.13;;;6.09;84.26
31483;BME280;18103;52.246;8.052;2023-04-25T05:45:37;99821.91;;;6.03;83.82
31483;BME280;18103;52.246;8.052;2023-04-25T05:48:02;99837.00;;;5.99;83.77
31483;BME280;18103;52.246;8.052;2023-04-25T05:50:33;99847.03;;;6.06;84.06
31483;BME280;18103;52.246;8.052;2023-04-25T05:53:01;99846.00;;;6.08;83.60
31483;BME280;18103;52.246;8.052;2023-04-25T05:55:31;99849.03;;;6.15;83.21
31483;BME280;18103;52.246;8.052;2023-04-25T05:57:56;99852.19;;;6.07;82.87
31483;BME280;18103;52.246;8.052;2023-04-25T06:00:21;99849.97;;;6.14;82.67
31483;BME280;18103;52.246;8.052;2023-04-25T06:02:48;99852.50;;;6.15;82.54
31483;BME280;18103;52.246;8.052;2023-04-25T06:05:16;99851.56;;;6.16;83.10
31483;BME280;18103;52.246;8.052;2023-04-25T06:07:41;99857.13;;;6.25;82.78
31483;BME280;18103;52.246;8.052;2023-04-25T06:10:07;99854.28;;;6.15;82.37
31483;BME280;18103;52.246;8.052;2023-04-25T06:12:35;99862.78;;;6.19;81.97
31483;BME280;18103;52.246;8.052;2023-04-25T06:15:06;99855.44;;;6.24;82.57
31483;BME280;18103;52.246;8.052;2023-04-25T06:17:35;99869.72;;;6.32;82.33
31483;BME280;18103;52.246;8.052;2023-04-25T06:20:03;99871.59;;;6.30;82.02
31483;BME280;18103;52.246;8.052;2023-04-25T06:22:31;99868.63;;;6.35;82.19
31483;BME280;18103;52.246;8.052;2023-04-25T06:24:57;99872.53;;;6.29;82.03
31483;BME280;18103;52.246;8.052;2023-04-25T06:27:24;99873.16;;;6.33;81.99
31483;BME280;18103;52.246;8.052;2023-04-25T06:29:49;99879.56;;;6.29;81.98
31483;BME280;18103;52.246;8.052;2023-04-25T06:32:14;99872.84;;;6.38;81.40
31483;BME280;18103;52.246;8.052;2023-04-25T06:34:43;99874.41;;;6.40;81.94
31483;BME280;18103;52.246;8.052;2023-04-25T06:37:11;99876.94;;;6.42;81.68
31483;BME280;18103;52.246;8.052;2023-04-25T06:39:36;99884.91;;;6.40;81.77
31483;BME280;18103;52.246;8.052;2023-04-25T06:42:02;99891.59;;;6.44;81.17
31483;BME280;18103;52.246;8.052;2023-04-25T06:44:29;99884.78;;;6.55;81.26
31483;BME280;18103;52.246;8.052;2023-04-25T06:46:55;99887.22;;;6.58;80.87
31483;BME280;18103;52.246;8.052;2023-04-25T06:49:21;99894.66;;;6.51;80.77
31483;BME280;18103;52.246;8.052;2023-04-25T06:51:48;99894.00;;;6.47;80.46
31483;BME280;18103;52.246;8.052;2023-04-25T06:54:16;99885.94;;;6.50;80.08
31483;BME280;18103;52.246;8.052;2023-04-25T06:56:42;99887.09;;;6.59;79.85
31483;BME280;18103;52.246;8.052;2023-04-25T06:59:10;99890.03;;;6.67;79.99
31483;BME280;18103;52.246;8.052;2023-04-25T07:01:35;99901.38;;;6.55;78.97
31483;BME280;18103;52.246;8.052;2023-04-25T07:04:00;99890.97;;;6.66;78.75
31483;BME280;18103;52.246;8.052;2023-04-25T07:06:28;99912.47;;;6.72;79.49
31483;BME280;18103;52.246;8.052;2023-04-25T07:08:54;99897.25;;;6.77;79.60
31483;BME280;18103;52.246;8.052;2023-04-25T07:11:20;99906.78;;;6.78;79.36
31483;BME280;18103;52.246;8.052;2023-04-25T07:13:46;99905.41;;;6.85;78.13
31483;BME280;18103;52.246;8.052;2023-04-25T07:16:11;99903.63;;;6.98;77.95
31483;BME280;18103;52.246;8.052;2023-04-25T07:18:36;99895.06;;;7.08;77.57
31483;BME280;18103;52.246;8.052;2023-04-25T07:21:02;99898.84;;;7.16;77.05
31483;BME280;18103;52.246;8.052;2023-04-25T07:23:27;99908.38;;;7.17;76.14
31483;BME280;18103;52.246;8.052;2023-04-25T07:25:53;99905.97;;;7.14;74.78
31483;BME280;18103;52.246;8.052;2023-04-25T07:28:18;99907.38;;;7.07;74.05
31483;BME280;18103;52.246;8.052;2023-04-25T07:30:44;99915.72;;;7.25;74.71
31483;BME280;18103;52.246;8.052;2023-04-25T07:33:09;99918.16;;;7.15;74.49
31483;BME280;18103;52.246;8.052;2023-04-25T07:35:37;99921.00;;;7.12;73.63
31483;BME280;18103;52.246;8.052;2023-04-25T07:38:02;99921.31;;;7.08;73.40
31483;BME280;18103;52.246;8.052;2023-04-25T07:40:30;99919.25;;;7.00;72.53
31483;BME280;18103;52.246;8.052;2023-04-25T07:42:56;99915.78;;;6.99;73.16
31483;BME280;18103;52.246;8.052;2023-04-25T07:45:21;99925.97;;;7.04;73.16
31483;BME280;18103;52.246;8.052;2023-04-25T07:47:46;99931.50;;;6.99;72.89
31483;BME280;18103;52.246;8.052;2023-04-25T07:50:15;99927.84;;;7.15;73.28
31483;BME280;18103;52.246;8.052;2023-04-25T07:52:40;99940.13;;;7.01;73.26
31483;BME280;18103;52.246;8.052;2023-04-25T07:55:09;99944.94;;;7.08;73.22
31483;BME280;18103;52.246;8.052;2023-04-25T07:57:34;99940.84;;;7.16;72.95
31483;BME280;18103;52.246;8.052;2023-04-25T08:00:03;99939.88;;;7.17;72.96
31483;BME280;18103;52.246;8.052;2023-04-25T08:02:37;99942.16;;;7.35;73.30
31483;BME280;18103;52.246;8.052;2023-04-25T08:05:04;99948.16;;;7.24;71.11
31483;BME280;18103;52.246;8.052;2023-04-25T08:07:33;99945.00;;;7.56;72.80
31483;BME280;18103;52.246;8.052;2023-04-25T08:10:01;99955.47;;;7.69;71.35
31483;BME280;18103;52.246;8.052;2023-04-25T08:12:29;99957.25;;;7.93;70.41
31483;BME280;18103;52.246;8.052;2023-04-25T08:14:54;99965.19;;;7.80;69.38
31483;BME280;18103;52.246;8.052;2023-04-25T08:17:21;99960.34;;;7.86;68.85
31483;BME280;18103;52.246;8.052;2023-04-25T08:19:47;99964.53;;;7.89;67.62
31483;BME280;18103;52.246;8.052;2023-04-25T08:22:15;99974.53;;;7.84;66.89
31483;BME280;18103;52.246;8.052;2023-04-25T08:24:41;99968.38;;;7.96;66.68
31483;BME280;18103;52.246;8.052;2023-04-25T08:27:07;99972.47;;;8.00;66.87
31483;BME280;18103;52.246;8.052;2023-04-25T08:29:33;99971.78;;;8.45;68.33
31483;BME280;18103;52.246;8.052;2023-04-25T08:32:01;99978.16;;;8.18;66.96
31483;BME280;18103;52.246;8.052;2023-04-25T08:34:26;99975.44;;;8.31;67.04
31483;BME280;18103;52.246;8.052;2023-04-25T08:36:52;99988.00;;;8.03;65.24
31483;BME280;18103;52.246;8.052;2023-04-25T08:39:17;99981.56;;;8.08;65.23
31483;BME280;18103;52.246;8.052;2023-04-25T08:41:45;99987.97;;;8.28;66.81
31483;BME280;18103;52.246;8.052;2023-04-25T08:44:11;99988.31;;;8.23;65.58
31483;BME280;18103;52.246;8.052;2023-04-25T08:46:40;99988.81;;;8.28;65.17
31483;BME280;18103;52.246;8.052;2023-04-25T08:49:07;99980.16;;;8.50;65.39
31483;BME280;18103;52.246;8.052;2023-04-25T08:51:33;99986.03;;;8.54;65.02
31483;BME280;18103;52.246;8.052;2023-04-25T08:54:09;99994.38;;;8.48;64.15
31483;BME280;18103;52.246;8.052;2023-04-25T08:56:43;99994.63;;;8.45;65.10
31483;BME280;18103;52.246;8.052;2023-04-25T08:59:11;100003.81;;;8.50;64.15
31483;BME280;18103;52.246;8.052;2023-04-25T09:01:36;100010.72;;;8.40;64.14
31483;BME280;18103;52.246;8.052;2023-04-25T09:04:02;100007.69;;;8.33;64.80
31483;BME280;18103;52.246;8.052;2023-04-25T09:06:30;100018.41;;;8.19;63.63
31483;BME280;18103;52.246;8.052;2023-04-25T09:09:06;100026.56;;;8.03;64.67
31483;BME280;18103;52.246;8.052;2023-04-25T09:11:33;100033.03;;;7.99;64.89
31483;BME280;18103;52.246;8.052;2023-04-25T09:21:56;100040.75;;;7.89;64.29
31483;BME280;18103;52.246;8.052;2023-04-25T09:24:44;100048.41;;;7.92;63.74
31483;BME280;18103;52.246;8.052;2023-04-25T09:27:13;100039.09;;;7.75;63.90
31483;BME280;18103;52.246;8.052;2023-04-25T09:29:45;100046.59;;;7.93;63.82
31483;BME280;18103;52.246;8.052;2023-04-25T09:34:46;100047.50;;;8.29;65.52
31483;BME280;18103;52.246;8.052;2023-04-25T09:39:47;100050.22;;;8.03;61.82
31483;BME280;18103;52.246;8.052;2023-04-25T09:42:16;100059.78;;;8.04;59.26
31483;BME280;18103;52.246;8.052;2023-04-25T09:44:46;100054.09;;;8.34;60.86
31483;BME280;18103;52.246;8.052;2023-04-25T09:47:16;100054.47;;;8.41;59.80
31483;BME280;18103;52.246;8.052;2023-04-25T09:49:43;100046.44;;;8.67;60.84
31483;BME280;18103;52.246;8.052;2023-04-25T09:52:17;100048.06;;;8.92;59.99
31483;BME280;18103;52.246;8.052;2023-04-25T09:54:47;100053.09;;;9.06;60.63
31483;BME280;18103;52.246;8.052;2023-04-25T09:57:23;100062.44;;;9.11;60.75
31483;BME280;18103;52.246;8.052;2023-04-25T09:59:51;100062.41;;;8.99;59.46
31483;BME280;18103;52.246;8.052;2023-04-25T10:02:18;100064.72;;;8.93;59.70
31483;BME280;18103;52.246;8.052;2023-04-25T10:04:49;100067.34;;;8.93;59.57
31483;BME280;18103;52.246;8.052;2023-04-25T10:07:18;100066.44;;;8.69;58.86
31483;BME280;18103;52.246;8.052;2023-04-25T10:09:48;100070.72;;;8.59;58.76
31483;BME280;18103;52.246;8.052;2023-04-25T10:12:16;100076.44;;;8.64;59.78
31483;BME280;18103;52.246;8.052;2023-04-25T10:14:42;100085.38;;;8.50;60.26
31483;BME280;18103;52.246;8.052;2023-04-25T10:17:10;100088.63;;;8.54;62.13
31483;BME280;18103;52.246;8.052;2023-04-25T10:19:35;100083.53;;;8.39;62.47
31483;BME280;18103;52.246;8.052;2023-04-25T10:22:07;100084.53;;;8.50;62.26
31483;BME280;18103;52.246;8.052;2023-04-25T10:24:36;100088.13;;;8.49;63.39
31483;BME280;18103;52.246;8.052;2023-04-25T10:27:05;100081.03;;;8.73;64.73
31483;BME280;18103;52.246;8.052;2023-04-25T10:29:34;100078.84;;;9.03;62.66
31483;BME280;18103;52.246;8.052;2023-04-25T10:32:00;100071.88;;;9.02;61.95
31483;BME280;18103;52.246;8.052;2023-04-25T10:34:43;100081.22;;;8.95;60.64
31483;BME280;18103;52.246;8.052;2023-04-25T10:37:15;100091.63;;;9.07;61.53
31483;BME280;18103;52.246;8.052;2023-04-25T10:39:41;100088.16;;;8.96;61.02
31483;BME280;18103;52.246;8.052;2023-04-25T10:42:12;100100.38;;;8.61;61.10
31483;BME280;18103;52.246;8.052;2023-04-25T10:44:37;100094.31;;;8.48;61.53
31483;BME280;18103;52.246;8.052;2023-04-25T10:47:06;100110.59;;;8.29;63.70
31483;BME280;18103;52.246;8.052;2023-04-25T10:52:24;100107.56;;;8.22;65.83
31483;BME280;18103;52.246;8.052;2023-04-25T11:02:30;100111.72;;;8.37;68.54
31483;BME280;18103;52.246;8.052;2023-04-25T11:04:56;100118.38;;;8.30;67.66
31483;BME280;18103;52.246;8.052;2023-04-25T11:07:38;100109.16;;;8.25;66.89
31483;BME280;18103;52.246;8.052;2023-04-25T11:10:04;100117.84;;;8.38;67.45
31483;BME280;18103;52.246;8.052;2023-04-25T11:12:33;100111.19;;;8.45;68.35
31483;BME280;18103;52.246;8.052;2023-04-25T11:15:03;100117.84;;;8.62;67.93
31483;BME280;18103;52.246;8.052;2023-04-25T11:17:28;100119.34;;;8.78;67.74
31483;BME280;18103;52.246;8.052;2023-04-25T11:19:54;100118.28;;;8.92;66.90
31483;BME280;18103;52.246;8.052;2023-04-25T11:22:22;100121.03;;;8.79;65.48
31483;BME280;18103;52.246;8.052;2023-04-25T11:24:47;100116.69;;;8.78;65.34
31483;BME280;18103;52.246;8.052;2023-04-25T11:27:13;100119.41;;;9.12;66.17
31483;BME280;18103;52.246;8.052;2023-04-25T11:29:43;100115.72;;;9.14;65.87
31483;BME280;18103;52.246;8.052;2023-04-25T11:32:10;100111.72;;;8.97;64.09
31483;BME280;18103;52.246;8.052;2023-04-25T11:34:36;100110.78;;;8.98;64.70
31483;BME280;18103;52.246;8.052;2023-04-25T11:37:06;100118.03;;;8.83;64.00
31483;BME280;18103;52.246;8.052;2023-04-25T11:39:31;100117.41;;;8.80;64.05
31483;BME280;18103;52.246;8.052;2023-04-25T11:41:57;100122.41;;;8.71;64.72
31483;BME280;18103;52.246;8.052;2023-04-25T11:44:25;100126.00;;;8.70;64.05
31483;BME280;18103;52.246;8.052;2023-04-25T11:46:50;100129.78;;;8.90;64.52
31483;BME280;18103;52.246;8.052;2023-04-25T11:49:18;100127.44;;;9.21;64.16
31483;BME280;18103;52.246;8.052;2023-04-25T11:51:45;100127.13;;;9.71;64.59
31483;BME280;18103;52.246;8.052;2023-04-25T11:54:12;100127.34;;;10.02;62.84
31483;BME280;18103;52.246;8.052;2023-04-25T11:56:44;100119.59;;;10.44;62.97
31483;BME280;18103;52.246;8.052;2023-04-25T11:59:10;100120.13;;;10.16;60.55
31483;BME280;18103;52.246;8.052;2023-04-25T12:01:38;100117.13;;;10.20;60.08
31483;BME280;18103;52.246;8.052;2023-04-25T12:04:18;100121.59;;;10.52;61.29
31483;BME280;18103;52.246;8.052;2023-04-25T12:06:48;100120.66;;;10.31;60.79
31483;BME280;18103;52.246;8.052;2023-04-25T12:09:18;100133.91;;;10.08;60.71
31483;BME280;18103;52.246;8.052;2023-04-25T12:11:53;100142.72;;;10.30;61.57
31483;BME280;18103;52.246;8.052;2023-04-25T12:14:30;100148.91;;;9.62;60.70
31483;BME280;18103;52.246;8.052;2023-04-25T12:16:57;100170.72;;;9.41;61.09
31483;BME280;18103;52.246;8.052;2023-04-25T12:19:23;100168.88;;;8.84;60.58
31483;BME280;18103;52.246;8.052;2023-04-25T12:21:50;100180.28;;;8.71;61.13
31483;BME280;18103;52.246;8.052;2023-04-25T12:24:17;100186.69;;;8.56;62.44
31483;BME280;18103;52.246;8.052;2023-04-25T12:29:29;100204.03;;;8.21;67.11
31483;BME280;18103;52.246;8.052;2023-04-25T12:31:56;100212.88;;;8.08;68.31
31483;BME280;18103;52.246;8.052;2023-04-25T12:34:24;100197.34;;;7.92;69.69
31483;BME280;18103;52.246;8.052;2023-04-25T12:36:52;100198.19;;;7.92;68.54
31483;BME280;18103;52.246;8.052;2023-04-25T12:39:22;100199.56;;;8.35;69.06
31483;BME280;18103;52.246;8.052;2023-04-25T12:41:48;100190.44;;;8.65;68.70
31483;BME280;18103;52.246;8.052;2023-04-25T12:44:17;100188.50;;;8.43;69.10
31483;BME280;18103;52.246;8.052;2023-04-25T12:46:43;100195.97;;;8.36;67.52
31483;BME280;18103;52.246;8.052;2023-04-25T12:49:09;100187.38;;;8.47;66.46
31483;BME280;18103;52.246;8.052;2023-04-25T12:51:36;100190.72;;;8.73;66.56
31483;BME280;18103;52.246;8.052;2023-04-25T12:54:03;100190.94;;;8.94;64.56
31483;BME280;18103;52.246;8.052;2023-04-25T12:56:30;100189.75;;;9.45;64.57
31483;BME280;18103;52.246;8.052;2023-04-25T12:58:55;100174.56;;;9.60;61.25
31483;BME280;18103;52.246;8.052;2023-04-25T13:01:23;100181.03;;;9.90;59.21
31483;BME280;18103;52.246;8.052;2023-04-25T13:03:52;100174.69;;;10.04;58.26
31483;BME280;18103;52.246;8.052;2023-04-25T13:06:21;100179.06;;;10.49;58.99
31483;BME280;18103;52.246;8.052;2023-04-25T13:08:46;100167.44;;;10.84;59.35
31483;BME280;18103;52.246;8.052;2023-04-25T13:11:14;100177.25;;;11.35;58.46
31483;BME280;18103;52.246;8.052;2023-04-25T13:13:40;100169.06;;;10.96;57.96
31483;BME280;18103;52.246;8.052;2023-04-25T13:16:06;100178.19;;;10.92;57.46
31483;BME280;18103;52.246;8.052;2023-04-25T13:18:36;100178.25;;;10.81;55.93
31483;BME280;18103;52.246;8.052;2023-04-25T13:21:03;100178.16;;;10.71;56.40
31483;BME280;18103;52.246;8.052;2023-04-25T13:23:31;100181.28;;;10.76;56.59
31483;BME280;18103;52.246;8.052;2023-04-25T13:25:57;100186.03;;;10.82;54.59
31483;BME280;18103;52.246;8.052;2023-04-25T13:28:26;100178.22;;;11.13;54.07
31483;BME280;18103;52.246;8.052;2023-04-25T13:30:54;100184.28;;;11.25;54.07
31483;BME280;18103;52.246;8.052;2023-04-25T13:33:20;100186.25;;;11.54;53.80